Time;durP1;ratioP1;P1;durP2;ratioP2;P2;SDS_P1;SDS_P2;PMS_P1;PMS_P2;Temp;Humidity;BMP_temperature;BMP_pressure;BME280_temperature;BME280_humidity;BME280_pressure;Samples;Min_cycle;Max_cycle;Signal;HPM_P1;HPM_P2
2023/11/15 00:00:43;;;;;;;;;;;;;;;;;;1897701;28;7131;-65
2023/11/15 00:01:42;;;;;;;;;;;;;;;;;;1897150;28;8023;-65
2023/11/15 00:02:40;;;;;;;;;;;;;;;;;;1897894;28;7005;-66
2023/11/15 00:03:38;;;;;;;;;;;;;;;;;;1897386;28;7013;-65
2023/11/15 00:04:36;;;;;;;;;;;;;;;;;;1897481;28;7096;-65
2023/11/15 00:05:34;;;;;;;;;;;;;;;;;;1897504;28;8087;-65
2023/11/15 00:06:31;;;;;;;;;;;;;;;;;;1897297;28;7005;-65
2023/11/15 00:07:30;;;;;;;;;;;;;;;;;;1897040;28;7125;-65
2023/11/15 00:08:27;;;;;;;;;;;;;;;;;;1897158;28;7124;-65
2023/11/15 00:09:24;;;;;;;;;;;;;;;;;;1897369;28;7064;-65
2023/11/15 00:10:23;;;;;;;;;;;;;;;;;;1897447;28;7016;-65
2023/11/15 00:11:20;;;;;;;;;;;;;;;;;;1897630;28;8039;-65
2023/11/15 00:12:18;;;;;;;;;;;;;;;;;;1896607;28;8031;-65
2023/11/15 00:13:15;;;;;;;;;;;;;;;;;;1897267;28;7099;-65
2023/11/15 00:14:13;;;;;;;;;;;;;;;;;;1896813;28;7391;-65
2023/11/15 00:15:10;;;;;;;;;;;;;;;;;;1897617;28;8015;-65
2023/11/15 00:16:08;;;;;;;;;;;;;;;;;;1895932;28;7104;-65
2023/11/15 00:17:05;;;;;;;;;;;;;;;;;;1897541;28;7147;-65
2023/11/15 00:18:04;;;;;;;;;;;;;;;;;;1896404;28;7124;-66
2023/11/15 00:19:03;;;;;;;;;;;;;;;;;;1897394;28;7017;-65
2023/11/15 00:20:03;;;;;;;;;;;;;;;;;;1896877;28;7014;-65
2023/11/15 00:21:01;;;;;;;;;;;;;;;;;;1897325;28;7163;-65
2023/11/15 00:21:58;;;;;;;;;;;;;;;;;;1897492;28;7120;-65
2023/11/15 00:22:56;;;;;;;;;;;;;;;;;;1896692;28;7022;-65
2023/11/15 00:23:53;;;;;;;;;;;;;;;;;;1896479;28;7063;-65
2023/11/15 00:24:51;;;;;;;;;;;;;;;;;;1897269;28;7100;-65
2023/11/15 00:25:49;;;;;;;;;;;;;;;;;;1896901;28;7101;-65
2023/11/15 00:26:46;;;;;;;;;;;;;;;;;;1895301;28;7013;-65
2023/11/15 00:27:44;;;;;;;;;;;;;;;;;;1897194;28;8028;-65
2023/11/15 00:28:41;;;;;;;;;;;;;;;;;;1897577;28;7987;-66
2023/11/15 00:29:39;;;;;;;;;;;;;;;;;;1895636;28;7213;-66
2023/11/15 00:30:36;;;;;;;;;;;;;;;;;;1897090;28;7017;-65
2023/11/15 00:31:34;;;;;;;;;;;;;;;;;;1897023;28;7148;-65
2023/11/15 00:32:31;;;;;;;;;;;;;;;;;;1895252;28;7411;-65
2023/11/15 00:33:29;;;;;;;;;;;;;;;;;;1896666;28;7206;-65
2023/11/15 00:34:26;;;;;;;;;;;;;;;;;;1897101;28;8012;-65
2023/11/15 00:35:25;;;;;;;;;;;;;;;;;;1897516;28;7136;-65
2023/11/15 00:36:23;;;;;;;;;;;;;;;;;;1896296;28;7101;-65
2023/11/15 00:37:21;;;;;;;;;;;;;;;;;;1896946;28;8457;-65
2023/11/15 00:38:18;;;;;;;;;;;;;;;;;;1896247;28;7096;-65
2023/11/15 00:39:16;;;;;;;;;;;;;;;;;;1896451;28;7014;-66
2023/11/15 00:40:16;;;;;;;;;;;;;;;;;;1896972;28;7014;-65
2023/11/15 00:41:13;;;;;;;;;;;;;;;;;;1896658;28;7017;-65
2023/11/15 00:42:11;;;;;;;;;;;;;;;;;;1897994;28;7021;-65
2023/11/15 00:43:08;;;;;;;;;;;;;;;;;;1897229;28;7046;-65
2023/11/15 00:44:07;;;;;;;;;;;;;;;;;;1896812;28;7009;-65
2023/11/15 00:45:05;;;;;;;;;;;;;;;;;;1896888;28;7017;-65
2023/11/15 00:46:02;;;;;;;;;;;;;;;;;;1896293;28;7046;-65
2023/11/15 00:47:00;;;;;;;;;;;;;;;;;;1896624;28;8035;-65
2023/11/15 00:47:57;;;;;;;;;;;;;;;;;;1897061;28;8029;-65
2023/11/15 00:48:55;;;;;;;;;;;;;;;;;;1898000;28;8737;-65
2023/11/15 00:49:52;;;;;;;;;;;;;;;;;;1896360;28;7120;-65
2023/11/15 00:50:51;;;;;;;;;;;;;;;;;;1896325;28;7083;-65
2023/11/15 00:51:48;;;;;;;;;;;;;;;;;;1896544;28;7057;-65
2023/11/15 00:52:46;;;;;;;;;;;;;;;;;;1896076;28;7121;-65
2023/11/15 00:53:43;;;;;;;;;;;;;;;;;;1896500;28;7342;-65
2023/11/15 00:54:41;;;;;;;;;;;;;;;;;;1897116;28;7246;-65
2023/11/15 00:55:38;;;;;;;;;;;;;;;;;;1896546;28;7122;-65
2023/11/15 00:56:36;;;;;;;;;;;;;;;;;;1896869;28;7017;-65
2023/11/15 00:57:34;;;;;;;;;;;;;;;;;;1897248;28;7013;-65
2023/11/15 00:58:38;;;;;;;;;;;;;;;;;;1896688;28;7096;-65
2023/11/15 00:59:44;;;;;;;;;;;;;;;;;;1896387;28;7037;-65
2023/11/15 01:00:47;;;;;;;;;;;;;;;;;;1897281;28;7008;-65
2023/11/15 01:01:45;;;;;;;;;;;;;;;;;;1888542;28;7178;-65
2023/11/15 01:02:46;;;;;;;;;;;;;;;;;;1889117;28;8103;-65
2023/11/15 01:03:55;;;;;;;;;;;;;;;;;;1896290;28;7033;-65
2023/11/15 01:04:53;;;;;;;;;;;;;;;;;;1896194;28;7009;-65
2023/11/15 01:05:55;;;;;;;;;;;;;;;;;;1896988;28;7009;-65
2023/11/15 01:06:52;;;;;;;;;;;;;;;;;;1888760;28;7431;-65
2023/11/15 01:07:50;;;;;;;;;;;;;;;;;;1897178;28;7033;-64
2023/11/15 01:08:47;;;;;;;;;;;;;;;;;;1896461;28;7009;-64
2023/11/15 01:09:45;;;;;;;;;;;;;;;;;;1890325;28;7036;-65
2023/11/15 01:10:43;;;;;;;;;;;;;;;;;;1896361;28;7121;-65
2023/11/15 01:11:41;;;;;;;;;;;;;;;;;;1896916;28;7132;-65
2023/11/15 01:12:39;;;;;;;;;;;;;;;;;;1896686;28;8111;-65
2023/11/15 01:13:36;;;;;;;;;;;;;;;;;;1896559;28;7222;-65
2023/11/15 01:14:34;;;;;;;;;;;;;;;;;;1897021;28;7176;-65
2023/11/15 01:15:31;;;;;;;;;;;;;;;;;;1897141;28;7050;-65
2023/11/15 01:16:29;;;;;;;;;;;;;;;;;;1896739;28;7096;-65
2023/11/15 01:17:29;;;;;;;;;;;;;;;;;;1896431;28;7132;-65
2023/11/15 01:18:29;;;;;;;;;;;;;;;;;;1896083;28;7321;-66
2023/11/15 01:19:26;;;;;;;;;;;;;;;;;;1896530;28;7013;-65
2023/11/15 01:20:25;;;;;;;;;;;;;;;;;;1896438;28;7066;-65
2023/11/15 01:21:22;;;;;;;;;;;;;;;;;;1896425;28;7216;-66
2023/11/15 01:22:20;;;;;;;;;;;;;;;;;;1897433;28;8026;-66
2023/11/15 01:23:17;;;;;;;;;;;;;;;;;;1897468;28;7092;-66
2023/11/15 01:24:16;;;;;;;;;;;;;;;;;;1896615;28;7022;-65
2023/11/15 01:25:14;;;;;;;;;;;;;;;;;;1896994;28;8043;-65
2023/11/15 01:26:11;;;;;;;;;;;;;;;;;;1896783;28;7009;-65
2023/11/15 01:27:09;;;;;;;;;;;;;;;;;;1896143;28;7017;-65
2023/11/15 01:28:07;;;;;;;;;;;;;;;;;;1896729;28;8194;-65
2023/11/15 01:29:04;;;;;;;;;;;;;;;;;;1897027;28;8041;-66
2023/11/15 01:30:03;;;;;;;;;;;;;;;;;;1896898;28;8267;-65
2023/11/15 01:31:02;;;;;;;;;;;;;;;;;;1896950;28;7209;-64
2023/11/15 01:31:59;;;;;;;;;;;;;;;;;;1897230;28;7013;-65
2023/11/15 01:32:57;;;;;;;;;;;;;;;;;;1896035;28;7160;-65
2023/11/15 01:33:55;;;;;;;;;;;;;;;;;;1896059;28;7092;-65
2023/11/15 01:34:52;;;;;;;;;;;;;;;;;;1896218;28;7121;-65
2023/11/15 01:35:50;;;;;;;;;;;;;;;;;;1896003;28;7057;-66
2023/11/15 01:36:48;;;;;;;;;;;;;;;;;;1896014;28;7096;-65
2023/11/15 01:37:46;;;;;;;;;;;;;;;;;;1896726;28;7360;-65
2023/11/15 01:38:45;;;;;;;;;;;;;;;;;;1896580;28;7042;-65
2023/11/15 01:39:43;;;;;;;;;;;;;;;;;;1896071;28;7005;-65
2023/11/15 01:40:40;;;;;;;;;;;;;;;;;;1895849;28;7113;-65
2023/11/15 01:41:39;;;;;;;;;;;;;;;;;;1896508;28;7093;-66
2023/11/15 01:42:40;;;;;;;;;;;;;;;;;;1895273;28;9059;-65
2023/11/15 01:43:38;;;;;;;;;;;;;;;;;;1896790;28;8034;-65
2023/11/15 01:44:35;;;;;;;;;;;;;;;;;;1896057;28;7005;-65
2023/11/15 01:45:33;;;;;;;;;;;;;;;;;;1896535;28;7018;-65
2023/11/15 01:46:30;;;;;;;;;;;;;;;;;;1896646;28;7352;-65
2023/11/15 01:47:29;;;;;;;;;;;;;;;;;;1895157;28;7013;-65
2023/11/15 01:48:27;;;;;;;;;;;;;;;;;;1896703;28;8115;-65
2023/11/15 01:49:25;;;;;;;;;;;;;;;;;;1896341;28;7096;-65
2023/11/15 01:50:23;;;;;;;;;;;;;;;;;;1897288;28;7088;-65
2023/11/15 01:51:21;;;;;;;;;;;;;;;;;;1897305;28;7046;-65
2023/11/15 01:52:18;;;;;;;;;;;;;;;;;;1896573;28;7017;-65
2023/11/15 01:53:16;;;;;;;;;;;;;;;;;;1896540;28;7117;-65
2023/11/15 01:54:15;;;;;;;;;;;;;;;;;;1895865;28;7211;-65
2023/11/15 01:55:16;;;;;;;;;;;;;;;;;;1895593;28;7112;-65
2023/11/15 01:56:13;;;;;;;;;;;;;;;;;;1896329;28;7025;-65
2023/11/15 01:57:12;;;;;;;;;;;;;;;;;;1896060;28;7110;-65
2023/11/15 01:58:09;;;;;;;;;;;;;;;;;;1897112;28;7013;-65
2023/11/15 01:59:08;;;;;;;;;;;;;;;;;;1897039;28;8055;-65
2023/11/15 02:00:10;;;;;;;;;;;;;;;;;;1897185;28;7006;-65
2023/11/15 02:01:10;;;;;;;;;;;;;;;;;;1896266;28;7128;-65
2023/11/15 02:02:08;;;;;;;;;;;;;;;;;;1895988;28;8134;-65
2023/11/15 02:03:05;;;;;;;;;;;;;;;;;;1896617;28;7092;-65
2023/11/15 02:04:04;;;;;;;;;;;;;;;;;;1895679;28;7116;-65
2023/11/15 02:05:01;;;;;;;;;;;;;;;;;;1895608;28;7316;-65
2023/11/15 02:05:59;;;;;;;;;;;;;;;;;;1896381;28;7134;-65
2023/11/15 02:06:56;;;;;;;;;;;;;;;;;;1896397;28;7120;-65
2023/11/15 02:07:54;;;;;;;;;;;;;;;;;;1896931;28;7136;-65
2023/11/15 02:08:51;;;;;;;;;;;;;;;;;;1894155;28;7085;-65
2023/11/15 02:09:49;;;;;;;;;;;;;;;;;;1896455;28;7132;-65
2023/11/15 02:10:47;;;;;;;;;;;;;;;;;;1896160;28;7129;-65
2023/11/15 02:11:44;;;;;;;;;;;;;;;;;;1896591;28;7092;-66
2023/11/15 02:12:42;;;;;;;;;;;;;;;;;;1896929;28;7049;-65
2023/11/15 02:13:39;;;;;;;;;;;;;;;;;;1896338;28;7014;-66
2023/11/15 02:14:37;;;;;;;;;;;;;;;;;;1895971;28;7092;-65
2023/11/15 02:15:35;;;;;;;;;;;;;;;;;;1895823;28;8001;-65
2023/11/15 02:16:32;;;;;;;;;;;;;;;;;;1894648;28;7080;-65
2023/11/15 02:17:30;;;;;;;;;;;;;;;;;;1895976;28;7137;-65
2023/11/15 02:18:28;;;;;;;;;;;;;;;;;;1896352;28;7306;-65
2023/11/15 02:19:28;;;;;;;;;;;;;;;;;;1896673;28;7104;-65
2023/11/15 02:20:28;;;;;;;;;;;;;;;;;;1897174;28;7093;-65
2023/11/15 02:21:25;;;;;;;;;;;;;;;;;;1896056;28;7096;-65
2023/11/15 02:22:25;;;;;;;;;;;;;;;;;;1895964;28;7001;-66
2023/11/15 02:23:23;;;;;;;;;;;;;;;;;;1896192;28;7049;-65
2023/11/15 02:24:21;;;;;;;;;;;;;;;;;;1896130;28;7100;-65
2023/11/15 02:25:19;;;;;;;;;;;;;;;;;;1895885;28;7049;-66
2023/11/15 02:26:16;;;;;;;;;;;;;;;;;;1896531;28;7046;-65
2023/11/15 02:27:14;;;;;;;;;;;;;;;;;;1894998;28;7022;-65
2023/11/15 02:28:11;;;;;;;;;;;;;;;;;;1896850;28;7164;-65
2023/11/15 02:29:10;;;;;;;;;;;;;;;;;;1895735;28;7041;-65
2023/11/15 02:30:08;;;;;;;;;;;;;;;;;;1896416;28;8011;-65
2023/11/15 02:31:08;;;;;;;;;;;;;;;;;;1895912;28;7017;-67
2023/11/15 02:32:07;;;;;;;;;;;;;;;;;;1896437;28;7112;-65
2023/11/15 02:33:04;;;;;;;;;;;;;;;;;;1896645;28;7016;-65
2023/11/15 02:34:01;;;;;;;;;;;;;;;;;;1896809;28;7057;-65
2023/11/15 02:34:59;;;;;;;;;;;;;;;;;;1896239;28;7125;-65
2023/11/15 02:35:56;;;;;;;;;;;;;;;;;;1896309;28;7005;-65
2023/11/15 02:36:55;;;;;;;;;;;;;;;;;;1896040;28;7005;-65
2023/11/15 02:37:52;;;;;;;;;;;;;;;;;;1896594;28;7067;-65
2023/11/15 02:38:50;;;;;;;;;;;;;;;;;;1896413;28;7266;-65
2023/11/15 02:39:48;;;;;;;;;;;;;;;;;;1896398;28;7216;-65
2023/11/15 02:40:45;;;;;;;;;;;;;;;;;;1896021;28;8054;-65
2023/11/15 02:41:43;;;;;;;;;;;;;;;;;;1897104;28;7013;-65
2023/11/15 02:42:40;;;;;;;;;;;;;;;;;;1897103;28;7116;-65
2023/11/15 02:43:38;;;;;;;;;;;;;;;;;;1895933;28;7091;-65
2023/11/15 02:44:35;;;;;;;;;;;;;;;;;;1887820;28;9417;-65
2023/11/15 02:45:33;;;;;;;;;;;;;;;;;;1887832;28;7146;-65
2023/11/15 02:46:30;;;;;;;;;;;;;;;;;;1894305;28;7014;-65
2023/11/15 02:47:28;;;;;;;;;;;;;;;;;;1889696;28;7191;-65
2023/11/15 02:48:26;;;;;;;;;;;;;;;;;;1888534;28;7138;-66
2023/11/15 02:49:23;;;;;;;;;;;;;;;;;;1896221;28;7360;-65
2023/11/15 02:50:21;;;;;;;;;;;;;;;;;;1895187;28;7017;-65
2023/11/15 02:51:18;;;;;;;;;;;;;;;;;;1895973;28;7012;-65
2023/11/15 02:52:16;;;;;;;;;;;;;;;;;;1895479;28;7163;-65
2023/11/15 02:53:13;;;;;;;;;;;;;;;;;;1896622;28;7101;-65
2023/11/15 02:54:11;;;;;;;;;;;;;;;;;;1896412;28;7096;-65
2023/11/15 02:55:08;;;;;;;;;;;;;;;;;;1896237;28;7021;-65
2023/11/15 02:56:06;;;;;;;;;;;;;;;;;;1895426;28;7081;-65
2023/11/15 02:57:04;;;;;;;;;;;;;;;;;;1895389;28;7095;-65
2023/11/15 02:58:03;;;;;;;;;;;;;;;;;;1895793;28;7331;-65
2023/11/15 02:59:01;;;;;;;;;;;;;;;;;;1896132;28;7013;-65
2023/11/15 02:59:58;;;;;;;;;;;;;;;;;;1895664;28;7033;-65
2023/11/15 03:00:56;;;;;;;;;;;;;;;;;;1895248;28;8031;-65
2023/11/15 03:01:53;;;;;;;;;;;;;;;;;;1896145;28;7118;-65
2023/11/15 03:02:50;;;;;;;;;;;;;;;;;;1896690;28;7021;-65
2023/11/15 03:03:48;;;;;;;;;;;;;;;;;;1897434;28;7100;-65
2023/11/15 03:04:46;;;;;;;;;;;;;;;;;;1895610;28;7017;-66
2023/11/15 03:05:43;;;;;;;;;;;;;;;;;;1895405;28;7026;-65
2023/11/15 03:06:40;;;;;;;;;;;;;;;;;;1895187;28;7046;-65
2023/11/15 03:07:38;;;;;;;;;;;;;;;;;;1896022;28;7013;-65
2023/11/15 03:08:36;;;;;;;;;;;;;;;;;;1895963;28;7137;-65
2023/11/15 03:09:33;;;;;;;;;;;;;;;;;;1895427;28;7037;-65
2023/11/15 03:10:32;;;;;;;;;;;;;;;;;;1896055;28;7050;-65
2023/11/15 03:11:29;;;;;;;;;;;;;;;;;;1895605;28;7037;-65
2023/11/15 03:12:27;;;;;;;;;;;;;;;;;;1895254;28;8011;-66
2023/11/15 03:13:25;;;;;;;;;;;;;;;;;;1895166;28;7254;-65
2023/11/15 03:14:23;;;;;;;;;;;;;;;;;;1895778;28;7272;-65
2023/11/15 03:15:20;;;;;;;;;;;;;;;;;;1895750;28;7057;-65
2023/11/15 03:16:17;;;;;;;;;;;;;;;;;;1896452;28;7042;-66
2023/11/15 03:17:16;;;;;;;;;;;;;;;;;;1895888;28;7014;-66
2023/11/15 03:18:14;;;;;;;;;;;;;;;;;;1896159;28;7052;-65
2023/11/15 03:19:11;;;;;;;;;;;;;;;;;;1895822;28;7140;-65
2023/11/15 03:20:09;;;;;;;;;;;;;;;;;;1897165;28;7123;-65
2023/11/15 03:21:07;;;;;;;;;;;;;;;;;;1896767;28;7361;-65
2023/11/15 03:22:05;;;;;;;;;;;;;;;;;;1895970;28;7012;-66
2023/11/15 03:23:02;;;;;;;;;;;;;;;;;;1896419;28;7021;-65
2023/11/15 03:24:00;;;;;;;;;;;;;;;;;;1896673;28;7291;-65
2023/11/15 03:24:57;;;;;;;;;;;;;;;;;;1896154;28;7140;-65
2023/11/15 03:25:55;;;;;;;;;;;;;;;;;;1896197;28;7307;-65
2023/11/15 03:26:52;;;;;;;;;;;;;;;;;;1895727;28;7113;-65
2023/11/15 03:27:51;;;;;;;;;;;;;;;;;;1896001;28;7029;-65
2023/11/15 03:28:48;;;;;;;;;;;;;;;;;;1895950;28;7325;-66
2023/11/15 03:29:46;;;;;;;;;;;;;;;;;;1896317;28;7131;-66
2023/11/15 03:30:43;;;;;;;;;;;;;;;;;;1896496;28;7045;-65
2023/11/15 03:31:41;;;;;;;;;;;;;;;;;;1896296;28;7091;-65
2023/11/15 03:32:38;;;;;;;;;;;;;;;;;;1896590;28;7010;-65
2023/11/15 03:33:36;;;;;;;;;;;;;;;;;;1899134;28;7100;-65
2023/11/15 03:34:35;;;;;;;;;;;;;;;;;;1902835;28;7009;-65
2023/11/15 03:35:32;;;;;;;;;;;;;;;;;;1896467;28;7372;-66
2023/11/15 03:36:32;;;;;;;;;;;;;;;;;;1896116;28;7122;-65
2023/11/15 03:37:31;;;;;;;;;;;;;;;;;;1896574;28;8011;-66
2023/11/15 03:38:28;;;;;;;;;;;;;;;;;;1895837;28;8039;-65
2023/11/15 03:39:26;;;;;;;;;;;;;;;;;;1895216;28;7100;-65
2023/11/15 03:40:24;;;;;;;;;;;;;;;;;;1896143;28;7046;-65
2023/11/15 03:41:21;;;;;;;;;;;;;;;;;;1895716;28;7379;-65
2023/11/15 03:42:19;;;;;;;;;;;;;;;;;;1895805;28;7198;-65
2023/11/15 03:43:16;;;;;;;;;;;;;;;;;;1896108;28;8032;-66
2023/11/15 03:44:15;;;;;;;;;;;;;;;;;;1896682;28;8114;-65
2023/11/15 03:45:13;;;;;;;;;;;;;;;;;;1896268;28;7050;-65
2023/11/15 03:46:10;;;;;;;;;;;;;;;;;;1895455;28;9054;-65
2023/11/15 03:47:08;;;;;;;;;;;;;;;;;;1895915;28;7260;-65
2023/11/15 03:48:07;;;;;;;;;;;;;;;;;;1895354;28;7010;-65
2023/11/15 03:49:05;;;;;;;;;;;;;;;;;;1895821;28;7033;-65
2023/11/15 03:50:04;;;;;;;;;;;;;;;;;;1895961;28;8030;-65
2023/11/15 03:51:02;;;;;;;;;;;;;;;;;;1896646;28;7116;-65
2023/11/15 03:51:59;;;;;;;;;;;;;;;;;;1896922;28;7017;-65
2023/11/15 03:52:57;;;;;;;;;;;;;;;;;;1895833;28;7128;-66
2023/11/15 03:53:54;;;;;;;;;;;;;;;;;;1895875;28;8087;-65
2023/11/15 03:54:51;;;;;;;;;;;;;;;;;;1896054;28;7046;-65
2023/11/15 03:55:49;;;;;;;;;;;;;;;;;;1896171;28;7332;-65
2023/11/15 03:56:46;;;;;;;;;;;;;;;;;;1888607;28;7020;-64
2023/11/15 03:57:46;;;;;;;;;;;;;;;;;;1895865;28;8000;-64
2023/11/15 03:58:44;;;;;;;;;;;;;;;;;;1895885;28;7045;-65
2023/11/15 03:59:44;;;;;;;;;;;;;;;;;;1897513;28;7034;-67
2023/11/15 04:00:44;;;;;;;;;;;;;;;;;;1896945;28;7227;-66
2023/11/15 04:01:42;;;;;;;;;;;;;;;;;;1897408;28;7016;-68
2023/11/15 04:02:52;;;;;;;;;;;;;;;;;;1897054;28;7042;-65
2023/11/15 04:03:50;;;;;;;;;;;;;;;;;;1898036;28;7120;-63
2023/11/15 04:04:48;;;;;;;;;;;;;;;;;;1896871;28;7127;-63
2023/11/15 04:05:46;;;;;;;;;;;;;;;;;;1896535;28;7013;-67
2023/11/15 04:06:44;;;;;;;;;;;;;;;;;;1897025;28;7104;-64
2023/11/15 04:07:42;;;;;;;;;;;;;;;;;;1897799;28;7093;-64
2023/11/15 04:08:40;;;;;;;;;;;;;;;;;;1897355;28;7044;-64
2023/11/15 04:09:38;;;;;;;;;;;;;;;;;;1896961;28;7018;-64
2023/11/15 04:10:37;;;;;;;;;;;;;;;;;;1896919;28;7017;-64
2023/11/15 04:11:34;;;;;;;;;;;;;;;;;;1895754;28;7054;-64
2023/11/15 04:12:32;;;;;;;;;;;;;;;;;;1896018;28;7241;-65
2023/11/15 04:13:29;;;;;;;;;;;;;;;;;;1896882;28;7291;-64
2023/11/15 04:14:27;;;;;;;;;;;;;;;;;;1897782;28;7033;-65
2023/11/15 04:15:24;;;;;;;;;;;;;;;;;;1896556;28;7323;-65
2023/11/15 04:16:22;;;;;;;;;;;;;;;;;;1889385;28;7104;-65
2023/11/15 04:17:19;;;;;;;;;;;;;;;;;;1894510;28;8038;-65
2023/11/15 04:18:17;;;;;;;;;;;;;;;;;;1897214;28;7116;-65
2023/11/15 04:19:15;;;;;;;;;;;;;;;;;;1897419;28;7172;-65
2023/11/15 04:20:12;;;;;;;;;;;;;;;;;;1897087;28;7009;-64
2023/11/15 04:21:10;;;;;;;;;;;;;;;;;;1898086;28;7009;-65
2023/11/15 04:22:07;;;;;;;;;;;;;;;;;;1897531;28;7830;-65
2023/11/15 04:23:10;;;;;;;;;;;;;;;;;;1896865;28;7050;-65
2023/11/15 04:24:08;;;;;;;;;;;;;;;;;;1896478;28;7046;-64
2023/11/15 04:25:05;;;;;;;;;;;;;;;;;;1896981;28;7054;-65
2023/11/15 04:26:03;;;;;;;;;;;;;;;;;;1896461;28;7089;-65
2023/11/15 04:27:00;;;;;;;;;;;;;;;;;;1897093;28;7017;-65
2023/11/15 04:27:58;;;;;;;;;;;;;;;;;;1896707;28;8034;-65
2023/11/15 04:28:58;;;;;;;;;;;;;;;;;;1896562;28;7096;-65
2023/11/15 04:29:57;;;;;;;;;;;;;;;;;;1903279;28;7212;-65
2023/11/15 04:30:55;;;;;;;;;;;;;;;;;;1903520;28;7013;-65
2023/11/15 04:31:53;;;;;;;;;;;;;;;;;;1897440;28;7096;-65
2023/11/15 04:32:50;;;;;;;;;;;;;;;;;;1896594;28;8059;-65
2023/11/15 04:33:48;;;;;;;;;;;;;;;;;;1897334;28;7021;-64
2023/11/15 04:34:46;;;;;;;;;;;;;;;;;;1895870;28;7265;-65
2023/11/15 04:35:43;;;;;;;;;;;;;;;;;;1897008;28;7013;-65
2023/11/15 04:36:41;;;;;;;;;;;;;;;;;;1897064;28;7057;-65
2023/11/15 04:37:39;;;;;;;;;;;;;;;;;;1897656;28;7088;-65
2023/11/15 04:38:37;;;;;;;;;;;;;;;;;;1897205;28;7021;-65
2023/11/15 04:39:34;;;;;;;;;;;;;;;;;;1896675;28;7133;-65
2023/11/15 04:40:31;;;;;;;;;;;;;;;;;;1896742;28;8027;-65
2023/11/15 04:41:29;;;;;;;;;;;;;;;;;;1897304;28;7010;-65
2023/11/15 04:42:26;;;;;;;;;;;;;;;;;;1897497;28;7013;-65
2023/11/15 04:43:24;;;;;;;;;;;;;;;;;;1897610;28;7994;-65
2023/11/15 04:44:21;;;;;;;;;;;;;;;;;;1895689;28;8026;-65
2023/11/15 04:45:19;;;;;;;;;;;;;;;;;;1896931;28;7092;-65
2023/11/15 04:46:16;;;;;;;;;;;;;;;;;;1896926;28;7014;-65
2023/11/15 04:47:14;;;;;;;;;;;;;;;;;;1896513;28;7050;-65
2023/11/15 04:48:11;;;;;;;;;;;;;;;;;;1896710;28;7155;-65
2023/11/15 04:49:09;;;;;;;;;;;;;;;;;;1896764;28;7236;-65
2023/11/15 04:50:08;;;;;;;;;;;;;;;;;;1897799;28;7100;-65
2023/11/15 04:51:05;;;;;;;;;;;;;;;;;;1896983;28;7089;-65
2023/11/15 04:52:03;;;;;;;;;;;;;;;;;;1889038;28;7105;-65
2023/11/15 04:53:00;;;;;;;;;;;;;;;;;;1888637;28;7014;-65
2023/11/15 04:53:58;;;;;;;;;;;;;;;;;;1895517;28;7078;-65
2023/11/15 04:54:55;;;;;;;;;;;;;;;;;;1896873;28;8290;-65
2023/11/15 04:55:53;;;;;;;;;;;;;;;;;;1898179;28;7319;-64
2023/11/15 04:56:50;;;;;;;;;;;;;;;;;;1897869;28;7303;-65
2023/11/15 04:57:48;;;;;;;;;;;;;;;;;;1897118;28;7024;-65
2023/11/15 04:58:45;;;;;;;;;;;;;;;;;;1889911;28;7153;-65
2023/11/15 04:59:42;;;;;;;;;;;;;;;;;;1896305;28;7049;-65
2023/11/15 05:00:40;;;;;;;;;;;;;;;;;;1897712;28;7061;-65
2023/11/15 05:01:41;;;;;;;;;;;;;;;;;;1896149;28;7313;-65
2023/11/15 05:02:39;;;;;;;;;;;;;;;;;;1897635;28;7009;-64
2023/11/15 05:03:36;;;;;;;;;;;;;;;;;;1898795;28;7009;-65
2023/11/15 05:04:34;;;;;;;;;;;;;;;;;;1897682;28;7013;-64
2023/11/15 05:05:32;;;;;;;;;;;;;;;;;;1897534;28;7435;-65
2023/11/15 05:06:29;;;;;;;;;;;;;;;;;;1897470;28;8029;-69
2023/11/15 05:07:27;;;;;;;;;;;;;;;;;;1896810;28;7193;-65
2023/11/15 05:08:24;;;;;;;;;;;;;;;;;;1897426;28;8115;-65
2023/11/15 05:09:23;;;;;;;;;;;;;;;;;;1897159;28;7016;-64
2023/11/15 05:10:22;;;;;;;;;;;;;;;;;;1896993;28;7120;-65
2023/11/15 05:11:19;;;;;;;;;;;;;;;;;;1897171;28;7005;-64
2023/11/15 05:12:16;;;;;;;;;;;;;;;;;;1896748;28;7764;-65
2023/11/15 05:13:14;;;;;;;;;;;;;;;;;;1897352;28;9086;-65
2023/11/15 05:14:13;;;;;;;;;;;;;;;;;;1897291;28;7032;-65
2023/11/15 05:15:10;;;;;;;;;;;;;;;;;;1897523;28;7101;-64
2023/11/15 05:16:08;;;;;;;;;;;;;;;;;;1897009;28;7141;-65
2023/11/15 05:17:05;;;;;;;;;;;;;;;;;;1898213;28;7014;-65
2023/11/15 05:18:03;;;;;;;;;;;;;;;;;;1897092;28;7009;-64
2023/11/15 05:19:03;;;;;;;;;;;;;;;;;;1897535;28;7084;-65
2023/11/15 05:20:01;;;;;;;;;;;;;;;;;;1896993;28;7378;-65
2023/11/15 05:20:58;;;;;;;;;;;;;;;;;;1904340;28;7006;-65
2023/11/15 05:21:56;;;;;;;;;;;;;;;;;;1904484;28;7021;-65
2023/11/15 05:22:56;;;;;;;;;;;;;;;;;;1903103;28;7952;-65
2023/11/15 05:23:55;;;;;;;;;;;;;;;;;;1904634;28;7113;-65
2023/11/15 05:24:55;;;;;;;;;;;;;;;;;;1903807;28;7010;-65
2023/11/15 05:25:53;;;;;;;;;;;;;;;;;;1904342;28;8143;-64
2023/11/15 05:26:50;;;;;;;;;;;;;;;;;;1904649;28;7109;-64
2023/11/15 05:27:48;;;;;;;;;;;;;;;;;;1904734;28;8019;-65
2023/11/15 05:28:45;;;;;;;;;;;;;;;;;;1904953;28;7260;-65
2023/11/15 05:29:43;;;;;;;;;;;;;;;;;;1904724;28;7116;-65
2023/11/15 05:30:41;;;;;;;;;;;;;;;;;;1904483;28;7009;-65
2023/11/15 05:31:38;;;;;;;;;;;;;;;;;;1905312;28;7013;-65
2023/11/15 05:32:36;;;;;;;;;;;;;;;;;;1903031;28;8759;-65
2023/11/15 05:33:33;;;;;;;;;;;;;;;;;;1904771;28;7017;-64
2023/11/15 05:34:31;;;;;;;;;;;;;;;;;;1904139;28;7155;-65
2023/11/15 05:35:28;;;;;;;;;;;;;;;;;;1904693;28;7120;-64
2023/11/15 05:36:26;;;;;;;;;;;;;;;;;;1905052;28;7041;-65
2023/11/15 05:37:23;;;;;;;;;;;;;;;;;;1903465;28;7009;-65
2023/11/15 05:38:20;;;;;;;;;;;;;;;;;;1905263;28;8002;-65
2023/11/15 05:39:18;;;;;;;;;;;;;;;;;;1904510;28;7009;-65
2023/11/15 05:40:15;;;;;;;;;;;;;;;;;;1904664;28;7013;-65
2023/11/15 05:41:15;;;;;;;;;;;;;;;;;;1904701;28;8050;-65
2023/11/15 05:42:12;;;;;;;;;;;;;;;;;;1904080;28;7009;-65
2023/11/15 05:43:10;;;;;;;;;;;;;;;;;;1902508;28;7997;-65
2023/11/15 05:44:07;;;;;;;;;;;;;;;;;;1904490;28;8105;-65
2023/11/15 05:45:05;;;;;;;;;;;;;;;;;;1904954;28;7944;-65
2023/11/15 05:46:03;;;;;;;;;;;;;;;;;;1903295;28;7013;-65
2023/11/15 05:47:00;;;;;;;;;;;;;;;;;;1904360;28;7046;-65
2023/11/15 05:47:58;;;;;;;;;;;;;;;;;;1904211;28;7130;-65
2023/11/15 05:48:58;;;;;;;;;;;;;;;;;;1904578;28;7409;-65
2023/11/15 05:49:55;;;;;;;;;;;;;;;;;;1905288;28;7484;-65
2023/11/15 05:50:53;;;;;;;;;;;;;;;;;;1904937;28;8125;-64
2023/11/15 05:51:52;;;;;;;;;;;;;;;;;;1905510;28;7017;-65
2023/11/15 05:52:51;;;;;;;;;;;;;;;;;;1904286;28;7005;-65
2023/11/15 05:53:49;;;;;;;;;;;;;;;;;;1904163;28;7263;-65
2023/11/15 05:54:47;;;;;;;;;;;;;;;;;;1904014;28;7049;-65
2023/11/15 05:55:44;;;;;;;;;;;;;;;;;;1904077;28;7013;-65
2023/11/15 05:56:48;;;;;;;;;;;;;;;;;;1903891;28;7403;-65
2023/11/15 05:57:46;;;;;;;;;;;;;;;;;;1903537;28;7034;-65
2023/11/15 05:58:45;;;;;;;;;;;;;;;;;;1904281;28;7377;-65
2023/11/15 05:59:43;;;;;;;;;;;;;;;;;;1903913;28;8021;-65
2023/11/15 06:00:40;;;;;;;;;;;;;;;;;;1904708;28;8125;-65
2023/11/15 06:01:38;;;;;;;;;;;;;;;;;;1903852;28;7010;-65
2023/11/15 06:02:35;;;;;;;;;;;;;;;;;;1904284;28;7013;-65
2023/11/15 06:03:33;;;;;;;;;;;;;;;;;;1904815;28;7013;-65
2023/11/15 06:04:31;;;;;;;;;;;;;;;;;;1903504;28;7311;-65
2023/11/15 06:05:29;;;;;;;;;;;;;;;;;;1903359;28;7121;-64
2023/11/15 06:06:27;;;;;;;;;;;;;;;;;;1904527;28;7062;-65
2023/11/15 06:07:25;;;;;;;;;;;;;;;;;;1904076;28;7046;-65
2023/11/15 06:08:24;;;;;;;;;;;;;;;;;;1904622;28;7394;-65
2023/11/15 06:09:21;;;;;;;;;;;;;;;;;;1903603;28;7180;-65
2023/11/15 06:10:19;;;;;;;;;;;;;;;;;;1903367;28;8190;-65
2023/11/15 06:11:16;;;;;;;;;;;;;;;;;;1904155;28;7203;-65
2023/11/15 06:12:13;;;;;;;;;;;;;;;;;;1904643;28;7033;-65
2023/11/15 06:13:14;;;;;;;;;;;;;;;;;;1905220;28;7037;-65
2023/11/15 06:14:14;;;;;;;;;;;;;;;;;;1904998;28;7382;-65
2023/11/15 06:15:12;;;;;;;;;;;;;;;;;;1904616;28;7017;-65
2023/11/15 06:16:10;;;;;;;;;;;;;;;;;;1904175;28;7108;-65
2023/11/15 06:17:07;;;;;;;;;;;;;;;;;;1903016;28;7013;-65
2023/11/15 06:18:06;;;;;;;;;;;;;;;;;;1903971;28;7088;-65
2023/11/15 06:19:07;;;;;;;;;;;;;;;;;;1904211;28;7032;-65
2023/11/15 06:20:05;;;;;;;;;;;;;;;;;;1904014;28;7039;-65
2023/11/15 06:21:04;;;;;;;;;;;;;;;;;;1904075;28;7092;-65
2023/11/15 06:22:01;;;;;;;;;;;;;;;;;;1904077;28;7010;-65
2023/11/15 06:22:59;;;;;;;;;;;;;;;;;;1904323;28;7096;-65
2023/11/15 06:23:56;;;;;;;;;;;;;;;;;;1904157;28;7005;-65
2023/11/15 06:24:54;;;;;;;;;;;;;;;;;;1904160;28;7054;-65
2023/11/15 06:25:51;;;;;;;;;;;;;;;;;;1904374;28;7009;-66
2023/11/15 06:26:51;;;;;;;;;;;;;;;;;;1903819;28;7067;-65
2023/11/15 06:27:49;;;;;;;;;;;;;;;;;;1904415;28;9190;-65
2023/11/15 06:28:49;;;;;;;;;;;;;;;;;;1904639;28;8021;-65
2023/11/15 06:29:47;;;;;;;;;;;;;;;;;;1904056;28;7013;-65
2023/11/15 06:30:48;;;;;;;;;;;;;;;;;;1904306;28;7091;-65
2023/11/15 06:31:48;;;;;;;;;;;;;;;;;;1904154;28;7033;-65
2023/11/15 06:32:45;;;;;;;;;;;;;;;;;;1904441;28;7009;-64
2023/11/15 06:33:42;;;;;;;;;;;;;;;;;;1904398;28;7020;-65
2023/11/15 06:34:40;;;;;;;;;;;;;;;;;;1904224;28;8021;-65
2023/11/15 06:35:37;;;;;;;;;;;;;;;;;;1904650;28;7067;-65
2023/11/15 06:36:36;;;;;;;;;;;;;;;;;;1904328;28;8076;-64
2023/11/15 06:37:34;;;;;;;;;;;;;;;;;;1904100;28;8006;-65
2023/11/15 06:38:34;;;;;;;;;;;;;;;;;;1904208;28;7016;-65
2023/11/15 06:39:32;;;;;;;;;;;;;;;;;;1903043;28;7148;-65
2023/11/15 06:40:29;;;;;;;;;;;;;;;;;;1904123;28;8067;-65
2023/11/15 06:41:26;;;;;;;;;;;;;;;;;;1903893;28;8013;-65
2023/11/15 06:42:24;;;;;;;;;;;;;;;;;;1904197;28;7013;-66
2023/11/15 06:43:22;;;;;;;;;;;;;;;;;;1904559;28;7097;-65